createdAt,value
2016-05-21T00:00:07.151Z,32.31
2016-05-21T00:01:07.170Z,32.31
2016-05-21T00:02:07.188Z,32.03
2016-05-21T00:03:07.222Z,32.12
2016-05-21T00:04:07.100Z,32.12
2016-05-21T00:05:07.274Z,32.51
2016-05-21T00:06:07.308Z,32.12
2016-05-21T00:07:07.326Z,31.83
2016-05-21T00:08:07.361Z,31.74
2016-05-21T00:09:07.378Z,32.6
2016-05-21T00:10:07.413Z,32.21
2016-05-21T00:11:07.462Z,32.1
2016-05-21T00:12:07.461Z,32.41
2016-05-21T00:13:07.511Z,32.6
2016-05-21T00:14:07.560Z,32.31
2016-05-21T00:15:07.594Z,32.31
2016-05-21T00:16:07.644Z,32.39
2016-05-21T00:17:07.671Z,32.31
2016-05-21T00:18:07.710Z,32.2
2016-05-21T00:19:07.735Z,32.21
2016-05-21T00:20:07.774Z,32.1
2016-05-21T00:21:07.798Z,32.1
2016-05-21T00:22:07.835Z,32.21
2016-05-21T00:23:07.857Z,32.31
2016-05-21T00:24:07.736Z,32.79
2016-05-21T00:25:07.929Z,32.87
2016-05-21T00:26:08.328Z,32.68
2016-05-21T00:27:07.984Z,32.68
2016-05-21T00:28:08.004Z,32.78
2016-05-21T00:29:08.038Z,32.68
2016-05-21T00:30:08.056Z,32.78
2016-05-21T00:31:08.075Z,33.16
2016-05-21T00:32:08.110Z,32.87
2016-05-21T00:33:08.129Z,32.97
2016-05-21T00:34:08.162Z,32.97
2016-05-21T00:35:08.181Z,32.97
2016-05-21T00:36:08.215Z,32.97
2016-05-21T00:37:08.233Z,32.97
2016-05-21T00:38:08.111Z,32.97
2016-05-21T00:39:08.286Z,33.45
2016-05-21T00:40:08.319Z,33.16
2016-05-21T00:41:08.181Z,33.26
2016-05-21T00:42:08.372Z,32.97
2016-05-21T00:43:08.405Z,32.97
2016-05-21T00:44:08.424Z,32.97
2016-05-21T00:45:08.441Z,32.97
2016-05-21T00:46:08.476Z,33.07
2016-05-21T00:47:08.495Z,33.16
2016-05-21T00:48:08.528Z,33.26
2016-05-21T00:49:08.547Z,33.45
2016-05-21T00:50:08.580Z,33.36
2016-05-21T00:51:08.599Z,33.45
2016-05-21T00:52:08.633Z,33.74
2016-05-21T00:53:08.651Z,33.64
2016-05-21T00:54:08.685Z,33.45
2016-05-21T00:55:08.718Z,33.74
2016-05-21T00:56:08.893Z,33.64
2016-05-21T00:57:08.599Z,33.64
2016-05-21T00:58:08.789Z,33.45
2016-05-21T00:59:08.807Z,33.84
2016-05-21T01:00:08.842Z,33.84
2016-05-21T01:01:08.860Z,34.03
2016-05-21T01:02:08.894Z,33.93
2016-05-21T01:03:08.912Z,33.93
2016-05-21T01:04:08.946Z,33.93
2016-05-21T01:05:08.965Z,33.64
2016-05-21T01:06:08.998Z,34.12
2016-05-21T01:07:09.017Z,34.12
2016-05-21T01:08:09.035Z,33.93
2016-05-21T01:09:09.069Z,33.93
2016-05-21T01:10:09.103Z,34.41
2016-05-21T01:11:09.121Z,34.41
2016-05-21T01:12:09.139Z,34.41
2016-05-21T01:13:09.017Z,34.22
2016-05-21T01:14:09.207Z,34.41
2016-05-21T01:15:09.258Z,34.61
2016-05-21T01:16:09.260Z,34.22
2016-05-21T01:17:09.278Z,34.11
2016-05-21T01:18:09.297Z,33.82
2016-05-21T01:19:09.346Z,34.3
2016-05-21T01:20:09.364Z,34.03
2016-05-21T01:21:09.383Z,34.2
2016-05-21T01:22:09.401Z,34.11
2016-05-21T01:23:09.435Z,34.11
2016-05-21T01:24:09.469Z,34.2
2016-05-21T01:25:09.487Z,34.2
2016-05-21T01:26:09.505Z,34.11
2016-05-21T01:27:09.539Z,34.11
2016-05-21T01:28:09.557Z,34.39
2016-05-21T01:29:09.435Z,34.59
2016-05-21T01:30:09.610Z,34.59
2016-05-21T01:31:09.644Z,34.59
2016-05-21T01:32:09.662Z,34.68
2016-05-21T01:33:09.696Z,34.7
2016-05-21T01:34:09.715Z,34.3
2016-05-21T01:35:09.748Z,34.49
2016-05-21T01:36:09.767Z,34.49
2016-05-21T01:37:09.785Z,34.49
2016-05-21T01:38:09.819Z,34.49
2016-05-21T01:39:09.837Z,34.49
2016-05-21T01:40:09.731Z,34.78
2016-05-21T01:41:09.748Z,34.78
2016-05-21T01:42:09.923Z,34.78
2016-05-21T01:43:09.958Z,34.88
2016-05-21T01:44:09.976Z,34.78
2016-05-21T01:45:09.995Z,34.88
2016-05-21T01:46:10.028Z,34.97
2016-05-21T01:47:10.047Z,34.97
2016-05-21T01:48:10.080Z,34.78
2016-05-21T01:49:10.099Z,34.88
2016-05-21T01:50:09.977Z,34.88
2016-05-21T01:51:10.166Z,34.78
2016-05-21T01:52:10.169Z,34.78
2016-05-21T01:53:10.046Z,34.97
2016-05-21T01:54:10.237Z,34.88
2016-05-21T01:55:10.099Z,34.97
2016-05-21T01:56:10.289Z,34.68
2016-05-21T01:57:10.308Z,34.97
2016-05-21T01:58:10.169Z,34.88
2016-05-21T01:59:10.360Z,35.06
2016-05-21T02:00:10.379Z,34.88
2016-05-21T02:01:10.412Z,35.26
2016-05-21T02:02:10.430Z,35.36
2016-05-21T02:03:10.464Z,35.06
2016-05-21T02:04:10.482Z,35.36
2016-05-21T02:05:10.501Z,35.16
2016-05-21T02:06:10.550Z,35.26
2016-05-21T02:07:10.553Z,35.26
2016-05-21T02:08:10.603Z,35.36
2016-05-21T02:09:10.605Z,35.26
2016-05-21T02:10:10.639Z,35.34
2016-05-21T02:11:10.814Z,35.16
2016-05-21T02:12:10.692Z,35.16
2016-05-21T02:13:10.726Z,35.93
2016-05-21T02:14:10.587Z,35.83
2016-05-21T02:15:10.606Z,35.16
2016-05-21T02:16:10.797Z,35.16
2016-05-21T02:17:10.814Z,35.36
2016-05-21T02:18:10.833Z,35.64
2016-05-21T02:19:10.866Z,35.55
2016-05-21T02:20:10.900Z,35.45
2016-05-21T02:21:10.919Z,35.34
2016-05-21T02:22:10.938Z,35.53
2016-05-21T02:23:10.971Z,35.63
2016-05-21T02:24:10.989Z,35.53
2016-05-21T02:25:11.024Z,35.53
2016-05-21T02:26:11.042Z,35.55
2016-05-21T02:27:11.076Z,35.53
2016-05-21T02:28:10.953Z,35.55
2016-05-21T02:29:11.113Z,35.55
2016-05-21T02:30:11.146Z,35.45
2016-05-21T02:31:11.165Z,35.36
2016-05-21T02:32:11.043Z,35.55
2016-05-21T02:33:11.092Z,35.43
2016-05-21T02:34:11.251Z,35.64
2016-05-21T02:35:11.268Z,35.82
2016-05-21T02:36:11.304Z,35.91
2016-05-21T02:37:11.320Z,35.91
2016-05-21T02:38:11.340Z,35.83
2016-05-21T02:39:11.374Z,35.83
2016-05-21T02:40:11.407Z,36.01
2016-05-21T02:41:11.270Z,36.01
2016-05-21T02:42:11.459Z,35.91
2016-05-21T02:43:11.478Z,36.01
2016-05-21T02:44:11.497Z,35.91
2016-05-21T02:45:11.530Z,36.01
2016-05-21T02:46:11.548Z,36.01
2016-05-21T02:47:11.582Z,36.01
2016-05-21T02:48:11.600Z,36.01
2016-05-21T02:49:11.619Z,36.2
2016-05-21T02:50:11.653Z,36.3
2016-05-21T02:51:11.703Z,36.49
2016-05-21T02:52:11.705Z,36.3
2016-05-21T02:53:11.724Z,36.2
2016-05-21T02:54:11.774Z,36.2
2016-05-21T02:55:12.026Z,36.4
2016-05-21T02:56:11.950Z,36.2
2016-05-21T02:57:11.828Z,36.11
2016-05-21T02:58:11.862Z,36.2
2016-05-21T02:59:11.896Z,36.3
2016-05-21T03:00:11.899Z,36.2
2016-05-21T03:01:11.777Z,36.11
2016-05-21T03:02:11.951Z,36.4
2016-05-21T03:03:11.984Z,36.3
2016-05-21T03:04:12.004Z,36.3
2016-05-21T03:05:12.037Z,36.4
2016-05-21T03:06:12.056Z,36.11
2016-05-21T03:07:12.073Z,36.49
2016-05-21T03:08:11.951Z,36.58
2016-05-21T03:09:12.126Z,36.49
2016-05-21T03:10:12.160Z,36.4
2016-05-21T03:11:12.037Z,36.4
2016-05-21T03:12:12.197Z,36.68
2016-05-21T03:13:12.231Z,36.4
2016-05-21T03:14:12.248Z,36.58
2016-05-21T03:15:12.283Z,36.58
2016-05-21T03:16:12.317Z,36.68
2016-05-21T03:17:12.335Z,36.68
2016-05-21T03:18:12.353Z,36.68
2016-05-21T03:19:12.387Z,36.78
2016-05-21T03:20:12.405Z,36.49
2016-05-21T03:21:12.425Z,36.58
2016-05-21T03:22:12.302Z,36.2
2016-05-21T03:23:12.477Z,36.49
2016-05-21T03:24:12.511Z,36.68
2016-05-21T03:25:12.544Z,36.68
2016-05-21T03:26:12.891Z,36.68
2016-05-21T03:27:12.580Z,36.68
2016-05-21T03:28:12.616Z,36.68
2016-05-21T03:29:12.633Z,36.4
2016-05-21T03:30:12.666Z,36.58
2016-05-21T03:31:12.685Z,36.3
2016-05-21T03:32:12.719Z,36.58
2016-05-21T03:33:12.737Z,36.88
2016-05-21T03:34:12.756Z,36.78
2016-05-21T03:35:12.790Z,36.78
2016-05-21T03:36:12.808Z,36.2
2016-05-21T03:37:12.842Z,36.68
2016-05-21T03:38:12.860Z,36.78
2016-05-21T03:39:12.879Z,36.78
2016-05-21T03:40:12.912Z,36.78
2016-05-21T03:41:12.946Z,36.88
2016-05-21T03:42:12.965Z,36.68
2016-05-21T03:43:12.983Z,36.68
2016-05-21T03:44:13.017Z,36.68
2016-05-21T03:45:13.036Z,36.88
2016-05-21T03:46:13.069Z,36.49
2016-05-21T03:47:13.087Z,36.49
2016-05-21T03:48:13.106Z,36.49
2016-05-21T03:49:13.140Z,37.07
2016-05-21T03:50:13.158Z,37.07
2016-05-21T03:51:13.192Z,36.78
2016-05-21T03:52:13.211Z,37.16
2016-05-21T03:53:13.228Z,37.07
2016-05-21T03:54:13.263Z,36.97
2016-05-21T03:55:13.297Z,36.97
2016-05-21T03:56:13.783Z,37.07
2016-05-21T03:57:13.333Z,36.68
2016-05-21T03:58:13.367Z,37.16
2016-05-21T03:59:13.402Z,36.97
2016-05-21T04:00:13.404Z,37.16
2016-05-21T04:01:13.438Z,36.97
2016-05-21T04:02:13.456Z,37.07
2016-05-21T04:03:13.490Z,37.07
2016-05-21T04:04:13.508Z,37.16
2016-05-21T04:05:13.386Z,37.07
2016-05-21T04:06:13.560Z,37.07
2016-05-21T04:07:13.595Z,37.16
2016-05-21T04:08:13.613Z,37.16
2016-05-21T04:09:13.631Z,37.35
2016-05-21T04:10:13.665Z,37.64
2016-05-21T04:11:13.699Z,37.74
2016-05-21T04:12:13.717Z,37.45
2016-05-21T04:13:13.736Z,37.45
2016-05-21T04:14:13.754Z,37.64
2016-05-21T04:15:13.788Z,37.45
2016-05-21T04:16:13.823Z,37.45
2016-05-21T04:17:13.840Z,37.45
2016-05-21T04:18:13.968Z,37.64
2016-05-21T04:19:13.892Z,37.55
2016-05-21T04:20:13.926Z,37.35
2016-05-21T04:21:13.945Z,37.35
2016-05-21T04:22:13.964Z,37.35
2016-05-21T04:23:13.997Z,37.35
2016-05-21T04:24:14.016Z,37.35
2016-05-21T04:25:14.033Z,37.35
2016-05-21T04:26:14.068Z,37.74
2016-05-21T04:27:14.101Z,37.45
2016-05-21T04:28:14.104Z,37.45
2016-05-21T04:29:14.138Z,37.64
2016-05-21T04:30:14.172Z,36.97
2016-05-21T04:31:14.206Z,37.35
2016-05-21T04:32:14.208Z,37.35
2016-05-21T04:33:14.243Z,37.45
2016-05-21T04:34:14.276Z,37.74
2016-05-21T04:35:14.310Z,37.26
2016-05-21T04:36:14.313Z,37.45
2016-05-21T04:37:14.331Z,37.35
2016-05-21T04:38:14.366Z,37.35
2016-05-21T04:39:14.384Z,37.35
2016-05-21T04:40:14.418Z,37.35
2016-05-21T04:41:14.452Z,37.45
2016-05-21T04:42:14.470Z,36.88
2016-05-21T04:43:14.488Z,37.55
2016-05-21T04:44:14.506Z,37.35
2016-05-21T04:45:14.540Z,37.26
2016-05-21T04:46:14.403Z,37.45
2016-05-21T04:47:14.437Z,37.26
2016-05-21T04:48:14.611Z,37.74
2016-05-21T04:49:14.645Z,37.64
2016-05-21T04:50:14.664Z,37.74
2016-05-21T04:51:14.698Z,37.55
2016-05-21T04:52:14.716Z,37.74
2016-05-21T04:53:14.734Z,37.64
2016-05-21T04:54:14.767Z,37.74
2016-05-21T04:55:14.786Z,37.84
2016-05-21T04:56:14.820Z,37.74
2016-05-21T04:57:14.839Z,37.74
2016-05-21T04:58:14.857Z,37.84
2016-05-21T04:59:14.890Z,37.74
2016-05-21T05:00:14.909Z,37.64
2016-05-21T05:01:14.943Z,37.64
2016-05-21T05:02:14.805Z,37.55
2016-05-21T05:03:14.995Z,37.74
2016-05-21T05:04:15.013Z,37.64
2016-05-21T05:05:15.047Z,37.74
2016-05-21T05:06:15.082Z,37.74
2016-05-21T05:07:15.099Z,37.07
2016-05-21T05:08:15.118Z,37.55
2016-05-21T05:09:15.136Z,37.64
2016-05-21T05:10:15.171Z,37.55
2016-05-21T05:11:15.220Z,37.55
2016-05-21T05:12:15.051Z,37.57
2016-05-21T05:13:15.241Z,37.35
2016-05-21T05:14:15.275Z,37.55
2016-05-21T05:15:15.293Z,37.35
2016-05-21T05:16:15.312Z,37.27
2016-05-21T05:17:15.346Z,37.35
2016-05-21T05:18:15.364Z,37.47
2016-05-21T05:19:15.398Z,37.47
2016-05-21T05:20:15.416Z,37.37
2016-05-21T05:21:15.450Z,37.27
2016-05-21T05:22:15.468Z,37.66
2016-05-21T05:23:15.486Z,37.66
2016-05-21T05:24:15.520Z,37.57
2016-05-21T05:25:15.383Z,37.76
2016-05-21T05:26:15.635Z,37.27
2016-05-21T05:27:15.591Z,37.76
2016-05-21T05:28:15.609Z,37.08
2016-05-21T05:29:15.643Z,37.85
2016-05-21T05:30:15.506Z,37.76
2016-05-21T05:31:15.696Z,37.66
2016-05-21T05:32:15.713Z,37.57
2016-05-21T05:33:15.763Z,37.57
2016-05-21T05:34:15.766Z,37.76
2016-05-21T05:35:15.785Z,37.85
2016-05-21T05:36:15.818Z,37.85
2016-05-21T05:37:15.853Z,37.85
2016-05-21T05:38:15.870Z,37.95
2016-05-21T05:39:15.904Z,37.95
2016-05-21T05:40:15.923Z,37.76
2016-05-21T05:41:15.910Z,37.76
2016-05-21T05:42:15.990Z,37.3
2016-05-21T05:43:15.993Z,37.85
2016-05-21T05:44:16.027Z,37.85
2016-05-21T05:45:16.046Z,37.77
2016-05-21T05:46:16.064Z,37.77
2016-05-21T05:47:16.098Z,38.07
2016-05-21T05:48:16.116Z,37.87
2016-05-21T05:49:16.150Z,37.3
2016-05-21T05:50:16.168Z,37.68
2016-05-21T05:51:16.203Z,37.39
2016-05-21T05:52:16.220Z,37.39
2016-05-21T05:53:16.364Z,37.97
2016-05-21T05:54:16.273Z,38.07
2016-05-21T05:55:16.306Z,38.45
2016-05-21T05:56:16.325Z,38.26
2016-05-21T05:57:16.359Z,38.54
2016-05-21T05:58:16.378Z,38.35
2016-05-21T05:59:16.396Z,38.54
2016-05-21T06:00:16.430Z,38.26
2016-05-21T06:01:16.447Z,38.26
2016-05-21T06:02:16.482Z,38.16
2016-05-21T06:03:16.500Z,38.26
2016-05-21T06:04:16.535Z,38.35
2016-05-21T06:05:16.553Z,38.16
2016-05-21T06:06:16.586Z,37.97
2016-05-21T06:07:16.621Z,37.41
2016-05-21T06:08:16.623Z,37.51
2016-05-21T06:09:16.657Z,37.51
2016-05-21T06:10:16.691Z,37.6
2016-05-21T06:11:16.757Z,37.79
2016-05-21T06:12:16.727Z,37.68
2016-05-21T06:13:16.762Z,37.22
2016-05-21T06:14:16.890Z,37.79
2016-05-21T06:15:16.814Z,37.99
2016-05-21T06:16:16.692Z,37.99
2016-05-21T06:17:16.866Z,37.79
2016-05-21T06:18:16.884Z,37.99
2016-05-21T06:19:16.762Z,38.09
2016-05-21T06:20:16.937Z,36.64
2016-05-21T06:21:16.955Z,37.7
2016-05-21T06:22:16.833Z,37.51
2016-05-21T06:23:17.023Z,37.79
2016-05-21T06:24:17.042Z,37.79
2016-05-21T06:25:17.059Z,37.41
2016-05-21T06:26:17.094Z,37.7
2016-05-21T06:27:16.956Z,37.41
2016-05-21T06:28:17.145Z,37.43
2016-05-21T06:29:17.164Z,37.62
2016-05-21T06:30:17.198Z,37.52
2016-05-21T06:31:17.216Z,37.62
2016-05-21T06:32:17.250Z,37.62
2016-05-21T06:33:17.127Z,37.62
2016-05-21T06:34:17.302Z,37.52
2016-05-21T06:35:17.321Z,37.81
2016-05-21T06:36:17.339Z,37.52
2016-05-21T06:37:17.374Z,37.43
2016-05-21T06:38:17.391Z,37.43
2016-05-21T06:39:17.425Z,37.14
2016-05-21T06:40:17.444Z,37.14
2016-05-21T06:41:17.838Z,36.85
2016-05-21T06:42:17.495Z,36.58
2016-05-21T06:43:17.530Z,37.14
2016-05-21T06:44:17.548Z,37.16
2016-05-21T06:45:17.582Z,36.58
2016-05-21T06:46:17.600Z,36.77
2016-05-21T06:47:17.634Z,36.19
2016-05-21T06:48:17.653Z,36.97
2016-05-21T06:49:17.702Z,36.29
2016-05-21T06:50:17.721Z,36.97
2016-05-21T06:51:17.739Z,36.68
2016-05-21T06:52:17.757Z,36.68
2016-05-21T06:53:17.791Z,36.69
2016-05-21T06:54:17.809Z,36.6
2016-05-21T06:55:17.687Z,36.21
2016-05-21T06:56:17.878Z,36.41
2016-05-21T06:57:17.895Z,36.02
2016-05-21T06:58:17.930Z,36.31
2016-05-21T06:59:17.948Z,36.11
2016-05-21T07:00:17.981Z,36.31
2016-05-21T07:01:18.000Z,36.21
2016-05-21T07:02:18.034Z,36.21
2016-05-21T07:03:18.052Z,36.6
2016-05-21T07:04:18.071Z,36.6
2016-05-21T07:05:18.105Z,36.11
2016-05-21T07:06:18.123Z,36.02
2016-05-21T07:07:18.157Z,36.02
2016-05-21T07:08:18.175Z,36.11
2016-05-21T07:09:18.210Z,36.11
2016-05-21T07:10:18.243Z,36.11
2016-05-21T07:11:18.260Z,36.13
2016-05-21T07:12:18.296Z,36.11
2016-05-21T07:13:18.313Z,36.11
2016-05-21T07:14:18.332Z,36.13
2016-05-21T07:15:18.366Z,36.04
2016-05-21T07:16:18.399Z,36.33
2016-05-21T07:17:18.418Z,36.11
2016-05-21T07:18:18.437Z,36.13
2016-05-21T07:19:18.315Z,35.94
2016-05-21T07:20:18.348Z,36.13
2016-05-21T07:21:18.523Z,36.43
2016-05-21T07:22:18.557Z,36.61
2016-05-21T07:23:18.418Z,36.52
2016-05-21T07:24:18.609Z,36.81
2016-05-21T07:25:18.627Z,36.81
2016-05-21T07:26:18.521Z,36.91
2016-05-21T07:27:18.695Z,36.81
2016-05-21T07:28:18.556Z,36.52
2016-05-21T07:29:18.748Z,36.71
2016-05-21T07:30:18.766Z,36.71
2016-05-21T07:31:18.987Z,36.61
2016-05-21T07:32:18.818Z,36.52
2016-05-21T07:33:18.852Z,36.33
2016-05-21T07:34:18.870Z,36.13
2016-05-21T07:35:18.888Z,36.13
2016-05-21T07:36:18.922Z,36.44
2016-05-21T07:37:18.941Z,36.44
2016-05-21T07:38:18.974Z,36.15
2016-05-21T07:39:18.993Z,36.06
2016-05-21T07:40:19.027Z,35.48
2016-05-21T07:41:19.546Z,35.58
2016-05-21T07:42:19.079Z,35.86
2016-05-21T07:43:19.113Z,35.86
2016-05-21T07:44:19.132Z,35.86
2016-05-21T07:45:19.165Z,35.48
2016-05-21T07:46:19.184Z,35.38
2016-05-21T07:47:19.218Z,35.4
2016-05-21T07:48:19.096Z,35.3
2016-05-21T07:49:19.270Z,35.3
2016-05-21T07:50:19.148Z,35.11
2016-05-21T07:51:19.323Z,35.02
2016-05-21T07:52:19.356Z,34.92
2016-05-21T07:53:19.373Z,34.53
2016-05-21T07:54:19.393Z,34.53
2016-05-21T07:55:19.442Z,34.72
2016-05-21T07:56:19.304Z,34.55
2016-05-21T07:57:19.495Z,34.05
2016-05-21T07:58:19.512Z,34.26
2016-05-21T07:59:19.390Z,34.16
2016-05-21T08:00:19.581Z,34.16
2016-05-21T08:01:19.584Z,34.55
2016-05-21T08:02:19.633Z,34.26
2016-05-21T08:03:19.651Z,34.55
2016-05-21T08:04:19.669Z,33.89
2016-05-21T08:05:19.703Z,34.16
2016-05-21T08:06:19.722Z,33.8
2016-05-21T08:07:19.756Z,33.7
2016-05-21T08:08:19.789Z,33.5
2016-05-21T08:09:19.808Z,33.98
2016-05-21T08:10:19.842Z,33.5
2016-05-21T08:11:19.719Z,33.5
2016-05-21T08:12:19.894Z,33.12
2016-05-21T08:13:19.928Z,33.12
2016-05-21T08:14:19.946Z,33.12
2016-05-21T08:15:19.981Z,33.52
2016-05-21T08:16:19.998Z,33.22
2016-05-21T08:17:20.033Z,33.4
2016-05-21T08:18:20.051Z,33.42
2016-05-21T08:19:20.101Z,33.42
2016-05-21T08:20:20.104Z,33.42
2016-05-21T08:21:20.137Z,33.14
2016-05-21T08:22:20.171Z,33.23
2016-05-21T08:23:20.190Z,33.33
2016-05-21T08:24:20.223Z,33.04
2016-05-21T08:25:20.242Z,32.65
2016-05-21T08:26:20.276Z,32.46
2016-05-21T08:27:20.294Z,32.65
2016-05-21T08:28:20.328Z,32.65
2016-05-21T08:29:20.362Z,32.56
2016-05-21T08:30:20.381Z,32.75
2016-05-21T08:31:20.414Z,32.38
2016-05-21T08:32:20.448Z,32.28
2016-05-21T08:33:20.466Z,32.28
2016-05-21T08:34:20.500Z,31.89
2016-05-21T08:35:20.362Z,32.38
2016-05-21T08:36:20.553Z,31.8
2016-05-21T08:37:20.587Z,31.99
2016-05-21T08:38:20.605Z,31.8
2016-05-21T08:39:20.483Z,32.01
2016-05-21T08:40:20.657Z,31.43
2016-05-21T08:41:20.707Z,31.43
2016-05-21T08:42:20.569Z,31.52
2016-05-21T08:43:20.743Z,31.23
2016-05-21T08:44:20.777Z,31.52
2016-05-21T08:45:20.796Z,31.23
2016-05-21T08:46:20.829Z,31.43
2016-05-21T08:47:20.863Z,31.23
2016-05-21T08:48:20.897Z,31.13
2016-05-21T08:49:20.916Z,31.15
2016-05-21T08:50:20.949Z,31.15
2016-05-21T08:51:20.968Z,30.76
2016-05-21T08:52:20.845Z,30.96
2016-05-21T08:53:21.035Z,30.76
2016-05-21T08:54:21.054Z,30.57
2016-05-21T08:55:21.088Z,30.38
2016-05-21T08:56:21.122Z,30.47
2016-05-21T08:57:21.140Z,30.58
2016-05-21T08:58:21.174Z,30.39
2016-05-21T08:59:21.209Z,30.39
2016-05-21T09:00:21.226Z,30.2
2016-05-21T09:01:21.261Z,29.81
2016-05-21T09:02:21.138Z,29.91
2016-05-21T09:03:21.313Z,29.71
2016-05-21T09:04:21.331Z,29.63
2016-05-21T09:05:21.364Z,29.53
2016-05-21T09:06:21.243Z,29.53
2016-05-21T09:07:21.417Z,29.05
2016-05-21T09:08:21.451Z,29.24
2016-05-21T09:09:21.486Z,29.15
2016-05-21T09:10:21.520Z,28.86
2016-05-21T09:11:22.006Z,28.76
2016-05-21T09:12:21.572Z,29.06
2016-05-21T09:13:21.589Z,29.06
2016-05-21T09:14:21.467Z,28.97
2016-05-21T09:15:21.674Z,28.97
2016-05-21T09:16:21.535Z,28.58
2016-05-21T09:17:21.710Z,28.58
2016-05-21T09:18:21.766Z,28.5
2016-05-21T09:19:21.806Z,28.59
2016-05-21T09:20:21.860Z,28.69
2016-05-21T09:21:21.915Z,28.79
2016-05-21T09:22:21.955Z,28.4
2016-05-21T09:23:21.995Z,28.13
2016-05-21T09:24:22.037Z,27.92
2016-05-21T09:25:21.923Z,28.03
2016-05-21T09:26:22.121Z,27.54
2016-05-21T09:27:22.146Z,27.64
2016-05-21T09:28:22.183Z,27.64
2016-05-21T09:29:22.219Z,27.75
2016-05-21T09:30:22.100Z,27.26
2016-05-21T09:31:22.277Z,27.17
2016-05-21T09:32:22.314Z,27.26
2016-05-21T09:33:22.349Z,27.36
2016-05-21T09:34:22.368Z,27.07
2016-05-21T09:35:22.404Z,27.07
2016-05-21T09:36:22.438Z,27.17
2016-05-21T09:37:22.458Z,26.87
2016-05-21T09:38:22.492Z,27.17
2016-05-21T09:39:22.528Z,26.5
2016-05-21T09:40:22.545Z,26.31
2016-05-21T09:41:22.423Z,26.31
2016-05-21T09:42:22.599Z,26.79
2016-05-21T09:43:22.633Z,26.7
2016-05-21T09:44:22.667Z,26.7
2016-05-21T09:45:22.700Z,26.6
2016-05-21T09:46:22.734Z,26.6
2016-05-21T09:47:22.768Z,26.5
2016-05-21T09:48:22.803Z,26.31
2016-05-21T09:49:22.665Z,26.12
2016-05-21T09:50:22.697Z,26.22
2016-05-21T09:51:22.889Z,25.93
2016-05-21T09:52:22.906Z,25.74
2016-05-21T09:53:22.941Z,25.74
2016-05-21T09:54:22.974Z,25.93
2016-05-21T09:55:23.008Z,25.84
2016-05-21T09:56:23.042Z,25.45
2016-05-21T09:57:23.060Z,25.64
2016-05-21T09:58:23.094Z,25.75
2016-05-21T09:59:23.128Z,25.75
2016-05-21T10:00:23.163Z,25.65
2016-05-21T10:01:23.024Z,25.65
2016-05-21T10:02:23.215Z,25.56
2016-05-21T10:03:23.249Z,25.36
2016-05-21T10:04:23.267Z,25.16
2016-05-21T10:05:23.301Z,25.08
2016-05-21T10:06:23.179Z,25.08
2016-05-21T10:07:23.354Z,25.27
2016-05-21T10:08:23.387Z,24.98
2016-05-21T10:09:23.265Z,25.08
2016-05-21T10:10:23.455Z,24.69
2016-05-21T10:11:23.489Z,24.61
2016-05-21T10:12:23.523Z,23.93
2016-05-21T10:13:23.541Z,24.32
2016-05-21T10:14:23.418Z,24.51
2016-05-21T10:15:23.609Z,24.12
2016-05-21T10:16:23.642Z,23.74
2016-05-21T10:17:23.677Z,23.74
2016-05-21T10:18:23.695Z,23.65
2016-05-21T10:19:23.728Z,23.65
2016-05-21T10:20:23.763Z,23.66
2016-05-21T10:21:23.798Z,23.46
2016-05-21T10:22:23.831Z,23.36
2016-05-21T10:23:23.850Z,22.88
2016-05-21T10:24:23.884Z,22.78
2016-05-21T10:25:23.917Z,23.08
2016-05-21T10:26:24.325Z,22.99
2016-05-21T10:27:23.985Z,23.18
2016-05-21T10:28:24.003Z,22.89
2016-05-21T10:29:24.038Z,22.5
2016-05-21T10:30:24.071Z,22.6
2016-05-21T10:31:24.121Z,22.5
2016-05-21T10:32:24.139Z,22.12
2016-05-21T10:33:24.174Z,22.12
2016-05-21T10:34:24.207Z,22.12
2016-05-21T10:35:24.241Z,21.64
2016-05-21T10:36:24.275Z,21.54
2016-05-21T10:37:24.294Z,21.73
2016-05-21T10:38:24.327Z,22.03
2016-05-21T10:39:24.361Z,21.45
2016-05-21T10:40:24.396Z,21.06
2016-05-21T10:41:24.429Z,21.06
2016-05-21T10:42:24.462Z,21.07
2016-05-21T10:43:24.496Z,21.46
2016-05-21T10:44:24.531Z,20.78
2016-05-21T10:45:24.565Z,20.87
2016-05-21T10:46:24.583Z,20.78
2016-05-21T10:47:24.461Z,20.78
2016-05-21T10:48:24.651Z,20.87
2016-05-21T10:49:24.685Z,20.39
2016-05-21T10:50:24.719Z,20.5
2016-05-21T10:51:24.753Z,20.5
2016-05-21T10:52:24.771Z,20.2
2016-05-21T10:53:24.806Z,20.2
2016-05-21T10:54:24.839Z,20.2
2016-05-21T10:55:24.873Z,20.4
2016-05-21T10:56:24.751Z,20.5
2016-05-21T10:57:24.942Z,20.1
2016-05-21T10:58:24.974Z,20.5
2016-05-21T10:59:25.025Z,20.3
2016-05-21T11:00:25.042Z,20.4
2016-05-21T11:01:25.077Z,20.2
2016-05-21T11:02:25.110Z,20.1
2016-05-21T11:03:25.145Z,19.92
2016-05-21T11:04:25.178Z,19.73
2016-05-21T11:05:25.212Z,19.73
2016-05-21T11:06:25.230Z,19.82
2016-05-21T11:07:25.265Z,19.53
2016-05-21T11:08:25.299Z,19.73
2016-05-21T11:09:25.332Z,19.82
2016-05-21T11:10:25.366Z,19.63
2016-05-21T11:11:25.260Z,19.73
2016-05-21T11:12:25.279Z,19.53
2016-05-21T11:13:25.468Z,19.53
2016-05-21T11:14:25.502Z,19.14
2016-05-21T11:15:25.537Z,19.53
2016-05-21T11:16:25.570Z,19.04
2016-05-21T11:17:25.588Z,19.34
2016-05-21T11:18:25.638Z,19.43
2016-05-21T11:19:25.672Z,19.24
2016-05-21T11:20:25.706Z,19.14
2016-05-21T11:21:25.834Z,18.95
2016-05-21T11:22:25.773Z,18.95
2016-05-21T11:23:25.792Z,18.95
2016-05-21T11:24:25.920Z,18.95
2016-05-21T11:25:25.859Z,18.76
2016-05-21T11:26:25.737Z,18.27
2016-05-21T11:27:26.333Z,18.18
2016-05-21T11:28:25.962Z,18.66
2016-05-21T11:29:25.995Z,18.47
2016-05-21T11:30:26.030Z,18.47
2016-05-21T11:31:26.063Z,17.88
2016-05-21T11:32:26.097Z,17.6
2016-05-21T11:33:26.131Z,17.6
2016-05-21T11:34:26.166Z,17.9
2016-05-21T11:35:26.199Z,17.61
2016-05-21T11:36:26.233Z,17.61
2016-05-21T11:37:26.111Z,17.22
2016-05-21T11:38:26.302Z,17.51
2016-05-21T11:39:26.335Z,17.13
2016-05-21T11:40:26.369Z,16.93
2016-05-21T11:41:26.465Z,16.93
2016-05-21T11:42:26.984Z,16.54
2016-05-21T11:43:26.470Z,16.75
2016-05-21T11:44:26.505Z,16.94
2016-05-21T11:45:26.538Z,16.75
2016-05-21T11:46:26.573Z,16.64
2016-05-21T11:47:26.607Z,16.25
2016-05-21T11:48:26.641Z,16.35
2016-05-21T11:49:26.674Z,16.85
2016-05-21T11:50:26.709Z,16.46
2016-05-21T11:51:26.742Z,15.97
2016-05-21T11:52:26.776Z,16.56
2016-05-21T11:53:26.826Z,15.97
2016-05-21T11:54:26.844Z,16.06
2016-05-21T11:55:26.894Z,15.87
2016-05-21T11:56:26.912Z,15.97
2016-05-21T11:57:27.493Z,15.87
2016-05-21T11:58:26.995Z,16.17
2016-05-21T11:59:27.030Z,16.06
2016-05-21T12:00:27.063Z,16.17
2016-05-21T12:01:27.097Z,15.97
2016-05-21T12:02:27.130Z,16.06
2016-05-21T12:03:27.009Z,16.17
2016-05-21T12:04:27.215Z,15.97
2016-05-21T12:05:27.233Z,15.77
2016-05-21T12:06:27.110Z,15.97
2016-05-21T12:07:27.301Z,15.98
2016-05-21T12:08:27.335Z,16.06
2016-05-21T12:09:27.369Z,15.98
2016-05-21T12:10:27.419Z,16.27
2016-05-21T12:11:27.452Z,16.08
2016-05-21T12:12:27.580Z,15.98
2016-05-21T12:13:27.520Z,15.29
2016-05-21T12:14:27.554Z,15.78
2016-05-21T12:15:27.588Z,15.69
2016-05-21T12:16:27.622Z,15.69
2016-05-21T12:17:27.656Z,15.59
2016-05-21T12:18:27.690Z,15.3
2016-05-21T12:19:27.724Z,15.11
2016-05-21T12:20:27.757Z,15.31
2016-05-21T12:21:27.807Z,15.11
2016-05-21T12:22:27.842Z,15.21
2016-05-21T12:23:27.890Z,14.91
2016-05-21T12:24:27.909Z,14.92
2016-05-21T12:25:27.943Z,15.01
2016-05-21T12:26:28.023Z,15.12
2016-05-21T12:27:28.120Z,15.02
2016-05-21T12:28:28.061Z,15.12
2016-05-21T12:29:28.078Z,15.02
2016-05-21T12:30:28.206Z,15.02
2016-05-21T12:31:28.147Z,14.73
2016-05-21T12:32:28.197Z,14.82
2016-05-21T12:33:28.075Z,14.53
2016-05-21T12:34:28.264Z,14.43
2016-05-21T12:35:28.298Z,14.63
2016-05-21T12:36:28.175Z,14.83
2016-05-21T12:37:28.210Z,13.85
2016-05-21T12:38:28.399Z,14.34
2016-05-21T12:39:28.434Z,14.04
2016-05-21T12:40:28.468Z,14.14
2016-05-21T12:41:28.501Z,14.24
2016-05-21T12:42:28.396Z,14.24
2016-05-21T12:43:28.585Z,14.34
2016-05-21T12:44:28.619Z,14.14
2016-05-21T12:45:28.669Z,14.14
2016-05-21T12:46:28.687Z,13.66
2016-05-21T12:47:28.721Z,13.95
2016-05-21T12:48:28.770Z,13.95
2016-05-21T12:49:28.804Z,14.05
2016-05-21T12:50:28.838Z,13.76
2016-05-21T12:51:28.873Z,13.66
2016-05-21T12:52:28.907Z,13.66
2016-05-21T12:53:28.940Z,13.95
2016-05-21T12:54:28.974Z,13.76
2016-05-21T12:55:29.101Z,13.85